createdAt,value
2018-05-25T00:01:56.203Z,13.43
2018-05-25T00:04:23.251Z,13.42
2018-05-25T00:06:50.255Z,13.42
2018-05-25T00:09:17.501Z,13.36
2018-05-25T00:11:44.717Z,13.29
2018-05-25T00:14:11.951Z,13.20
2018-05-25T00:16:39.116Z,13.11
2018-05-25T00:19:06.438Z,13.08
2018-05-25T00:21:33.711Z,13.01
2018-05-25T00:24:01.072Z,12.96
2018-05-25T00:26:28.110Z,12.97
2018-05-25T00:28:55.171Z,12.93
2018-05-25T00:31:22.415Z,12.90
2018-05-25T00:33:49.434Z,12.90
2018-05-25T00:36:16.467Z,12.91
2018-05-25T00:38:43.795Z,13.00
2018-05-25T00:41:10.905Z,13.07
2018-05-25T00:43:37.976Z,13.07
2018-05-25T00:46:05.492Z,13.07
2018-05-25T00:48:32.934Z,13.01
2018-05-25T00:51:00.244Z,13.08
2018-05-25T00:53:27.395Z,13.10
2018-05-25T00:55:54.556Z,13.11
2018-05-25T00:58:21.802Z,13.09
2018-05-25T01:00:48.871Z,13.10
2018-05-25T01:03:16.101Z,13.14
2018-05-25T01:05:43.438Z,13.13
2018-05-25T01:08:10.553Z,13.09
2018-05-25T01:10:38.006Z,13.15
2018-05-25T01:13:05.892Z,13.15
2018-05-25T01:15:33.018Z,13.13
2018-05-25T01:18:00.188Z,13.11
2018-05-25T01:20:27.390Z,13.01
2018-05-25T01:22:54.519Z,13.00
2018-05-25T01:25:21.866Z,12.94
2018-05-25T01:27:50.229Z,12.85
2018-05-25T01:30:17.326Z,12.76
2018-05-25T01:32:44.671Z,12.77
2018-05-25T01:35:11.841Z,12.72
2018-05-25T01:37:38.946Z,12.72
2018-05-25T01:40:06.038Z,12.63
2018-05-25T01:42:33.228Z,12.57
2018-05-25T01:45:00.403Z,12.54
2018-05-25T01:47:27.801Z,12.47
2018-05-25T01:49:54.908Z,12.40
2018-05-25T01:52:22.144Z,12.31
2018-05-25T01:54:49.153Z,12.23
2018-05-25T01:57:16.287Z,12.23
2018-05-25T01:59:43.462Z,12.31
2018-05-25T02:02:10.654Z,12.29
2018-05-25T02:04:37.833Z,12.25
2018-05-25T02:07:05.447Z,12.20
2018-05-25T02:09:32.837Z,12.08
2018-05-25T02:12:00.988Z,12.01
2018-05-25T02:14:28.147Z,11.95
2018-05-25T02:16:55.273Z,11.89
2018-05-25T02:24:55.666Z,11.83
2018-05-25T02:27:22.868Z,11.82
2018-05-25T02:29:50.009Z,11.81
2018-05-25T02:32:17.198Z,11.79
2018-05-25T02:34:44.489Z,11.76
2018-05-25T02:37:11.742Z,11.79
2018-05-25T02:39:39.075Z,11.75
2018-05-25T02:42:06.277Z,11.69
2018-05-25T02:44:33.529Z,11.63
2018-05-25T02:47:00.733Z,11.62
2018-05-25T02:49:27.944Z,11.66
2018-05-25T02:51:55.145Z,11.68
2018-05-25T02:54:22.569Z,11.75
2018-05-25T02:56:49.852Z,11.73
2018-05-25T02:59:17.265Z,11.69
2018-05-25T03:01:44.308Z,11.70
2018-05-25T03:04:12.713Z,11.65
2018-05-25T03:06:39.868Z,11.65
2018-05-25T03:09:07.040Z,11.56
2018-05-25T03:11:34.132Z,11.44
2018-05-25T03:14:01.267Z,11.36
2018-05-25T03:16:28.362Z,11.35
2018-05-25T03:18:55.384Z,11.28
2018-05-25T03:21:22.689Z,11.33
2018-05-25T03:23:49.851Z,11.36
2018-05-25T03:26:17.002Z,11.33
2018-05-25T03:28:44.433Z,11.35
2018-05-25T03:31:11.984Z,11.32
2018-05-25T03:33:39.121Z,11.41
2018-05-25T03:36:06.207Z,11.50
2018-05-25T03:38:33.469Z,11.58
2018-05-25T03:41:00.597Z,11.67
2018-05-25T03:43:27.926Z,11.64
2018-05-25T03:45:55.208Z,11.66
2018-05-25T03:48:22.422Z,11.66
2018-05-25T03:50:49.506Z,11.60
2018-05-25T03:53:16.567Z,11.63
2018-05-25T03:55:43.653Z,11.74
2018-05-25T03:58:10.803Z,11.84
2018-05-25T04:00:43.959Z,11.94
2018-05-25T04:03:11.084Z,12.00
2018-05-25T04:05:38.323Z,11.99
2018-05-25T04:08:05.589Z,12.05
2018-05-25T04:10:32.959Z,12.16
2018-05-25T04:13:00.083Z,12.19
2018-05-25T04:15:27.445Z,12.27
2018-05-25T04:17:54.726Z,12.32
2018-05-25T04:20:21.995Z,12.39
2018-05-25T04:22:49.204Z,12.43
2018-05-25T04:25:16.375Z,12.44
2018-05-25T04:27:43.389Z,12.49
2018-05-25T04:30:10.522Z,12.47
2018-05-25T04:32:37.532Z,12.56
2018-05-25T04:35:04.699Z,12.66
2018-05-25T04:37:31.874Z,12.59
2018-05-25T04:39:59.109Z,12.68
2018-05-25T04:42:26.384Z,12.73
2018-05-25T04:44:53.569Z,12.68
2018-05-25T04:47:20.753Z,12.82
2018-05-25T04:49:47.858Z,12.91
2018-05-25T04:52:15.690Z,12.91
2018-05-25T04:54:42.791Z,12.93
2018-05-25T04:57:10.423Z,12.70
2018-05-25T04:59:37.781Z,12.76
2018-05-25T05:02:04.779Z,12.96
2018-05-25T05:04:32.013Z,13.25
2018-05-25T05:06:59.234Z,13.44
2018-05-25T05:09:26.320Z,13.67
2018-05-25T05:11:53.685Z,13.82
2018-05-25T05:14:21.180Z,13.37
2018-05-25T05:16:48.570Z,13.51
2018-05-25T05:19:16.079Z,13.75
2018-05-25T05:21:43.921Z,13.81
2018-05-25T05:24:11.414Z,14.05
2018-05-25T05:26:38.499Z,14.22
2018-05-25T05:29:05.630Z,14.69
2018-05-25T05:31:32.755Z,14.98
2018-05-25T05:33:59.917Z,15.49
2018-05-25T05:36:27.208Z,16.09
2018-05-25T05:38:54.565Z,16.42
2018-05-25T05:41:21.988Z,16.45
2018-05-25T05:43:49.358Z,16.43
2018-05-25T05:46:16.499Z,16.66
2018-05-25T05:48:43.840Z,17.13
2018-05-25T05:51:10.959Z,17.64
2018-05-25T05:53:38.228Z,18.24
2018-05-25T05:56:05.484Z,18.04
2018-05-25T05:58:32.921Z,17.49
2018-05-25T06:01:00.123Z,17.34
2018-05-25T06:03:27.395Z,17.08
2018-05-25T06:05:54.775Z,17.55
2018-05-25T06:08:21.824Z,18.33
2018-05-25T06:10:48.991Z,19.77
2018-05-25T06:13:16.374Z,20.36
2018-05-25T06:15:43.600Z,20.51
2018-05-25T06:18:10.596Z,21.27
2018-05-25T06:20:37.616Z,21.54
2018-05-25T06:23:04.620Z,21.96
2018-05-25T06:25:31.661Z,22.58
2018-05-25T06:27:59.380Z,23.86
2018-05-25T06:30:26.409Z,23.80
2018-05-25T06:32:54.504Z,24.94
2018-05-25T06:35:21.810Z,25.66
2018-05-25T06:37:49.214Z,25.39
2018-05-25T06:40:16.466Z,25.27
2018-05-25T06:42:43.488Z,25.76
2018-05-25T06:45:11.096Z,25.86
2018-05-25T06:47:38.582Z,26.38
2018-05-25T06:50:06.200Z,26.62
2018-05-25T06:52:34.239Z,26.77
2018-05-25T06:55:01.961Z,26.90
2018-05-25T06:57:29.510Z,28.16
2018-05-25T06:59:57.061Z,27.50
2018-05-25T07:02:24.770Z,27.53
2018-05-25T07:04:52.389Z,28.50
2018-05-25T07:07:20.060Z,29.22
2018-05-25T07:09:47.895Z,27.66
2018-05-25T07:12:15.782Z,28.56
2018-05-25T07:14:43.531Z,29.11
2018-05-25T07:17:11.070Z,28.65
2018-05-25T07:19:38.732Z,29.06
2018-05-25T07:22:06.298Z,29.60
2018-05-25T07:24:34.231Z,31.47
2018-05-25T07:27:01.816Z,30.21
2018-05-25T07:29:29.462Z,30.10
2018-05-25T07:31:57.261Z,29.53
2018-05-25T07:34:24.892Z,30.43
2018-05-25T07:36:52.491Z,30.54
2018-05-25T07:39:20.404Z,31.12
2018-05-25T07:41:48.922Z,31.72
2018-05-25T07:44:16.856Z,32.41
2018-05-25T07:46:44.494Z,31.60
2018-05-25T07:49:12.329Z,32.32
2018-05-25T07:51:39.869Z,32.53
2018-05-25T07:54:07.506Z,32.98
2018-05-25T07:56:35.007Z,31.97
2018-05-25T07:59:03.139Z,34.12
2018-05-25T08:01:30.595Z,34.01
2018-05-25T08:03:58.232Z,31.94
2018-05-25T08:06:25.851Z,33.07
2018-05-25T08:08:54.094Z,34.56
2018-05-25T08:11:21.995Z,35.55
2018-05-25T08:13:49.692Z,34.84
2018-05-25T08:16:17.351Z,35.30
2018-05-25T08:18:44.860Z,36.06
2018-05-25T08:21:12.531Z,35.40
2018-05-25T08:23:40.465Z,36.42
2018-05-25T08:26:08.335Z,34.91
2018-05-25T08:28:35.897Z,35.46
2018-05-25T08:31:03.402Z,35.98
2018-05-25T08:33:30.863Z,36.45
2018-05-25T08:35:58.388Z,37.05
2018-05-25T08:38:26.037Z,37.85
2018-05-25T08:40:53.691Z,38.54
2018-05-25T08:43:21.323Z,37.89
2018-05-25T08:45:48.996Z,38.63
2018-05-25T08:48:16.556Z,38.15
2018-05-25T08:50:44.096Z,39.41
2018-05-25T08:53:11.586Z,40.25
2018-05-25T08:55:39.444Z,39.59
2018-05-25T08:58:07.120Z,39.53
2018-05-25T09:00:34.941Z,40.18
2018-05-25T09:03:02.642Z,40.75
2018-05-25T09:05:30.201Z,40.03
2018-05-25T09:07:57.696Z,38.26
2018-05-25T09:10:25.330Z,39.01
2018-05-25T09:12:53.212Z,39.31
2018-05-25T09:15:20.870Z,39.51
2018-05-25T09:17:49.392Z,40.59
2018-05-25T09:20:17.061Z,40.21
2018-05-25T09:22:44.817Z,40.94
2018-05-25T09:25:13.042Z,42.36
2018-05-25T09:27:41.204Z,41.36
2018-05-25T09:30:08.941Z,42.94
2018-05-25T09:32:36.732Z,42.87
2018-05-25T09:35:04.236Z,43.51
2018-05-25T09:37:32.174Z,42.42
2018-05-25T09:40:00.201Z,42.53
2018-05-25T09:42:27.753Z,42.54
2018-05-25T09:44:55.488Z,42.77
2018-05-25T09:47:23.041Z,43.09
2018-05-25T09:49:50.588Z,43.04
2018-05-25T09:52:18.444Z,42.79
2018-05-25T09:54:46.032Z,42.83
2018-05-25T09:57:13.501Z,43.79
2018-05-25T09:59:41.125Z,44.30
2018-05-25T10:02:08.862Z,44.92
2018-05-25T10:04:36.447Z,45.04
2018-05-25T10:07:04.215Z,44.19
2018-05-25T10:09:31.782Z,44.70
2018-05-25T10:11:59.300Z,44.33
2018-05-25T10:14:28.145Z,44.79
2018-05-25T10:16:55.686Z,45.58
2018-05-25T10:19:23.150Z,45.03
2018-05-25T10:21:50.760Z,44.74
2018-05-25T10:24:18.317Z,45.02
2018-05-25T10:26:45.791Z,46.07
2018-05-25T10:29:13.315Z,45.55
2018-05-25T10:31:40.871Z,46.76
2018-05-25T10:34:08.500Z,46.49
2018-05-25T10:36:36.032Z,46.11
2018-05-25T10:39:03.656Z,44.06
2018-05-25T10:41:31.321Z,44.49
2018-05-25T10:43:58.764Z,45.44
2018-05-25T10:46:26.272Z,44.27
2018-05-25T10:48:53.732Z,44.46
2018-05-25T10:51:21.209Z,44.46
2018-05-25T10:53:48.668Z,43.48
2018-05-25T10:56:16.337Z,43.99
2018-05-25T10:58:44.027Z,44.26
2018-05-25T11:01:11.611Z,44.88
2018-05-25T11:03:39.131Z,45.84
2018-05-25T11:06:06.852Z,47.04
2018-05-25T11:08:34.641Z,47.63
2018-05-25T11:11:02.112Z,45.90
2018-05-25T11:13:29.646Z,42.44
2018-05-25T11:15:57.255Z,40.25
2018-05-25T11:18:25.791Z,38.40
2018-05-25T11:20:54.381Z,37.97
2018-05-25T11:23:21.941Z,37.37
2018-05-25T11:25:49.821Z,36.78
2018-05-25T11:28:17.328Z,35.99
2018-05-25T11:30:45.016Z,35.52
2018-05-25T11:33:12.537Z,34.72
2018-05-25T11:35:40.038Z,34.54
2018-05-25T11:38:07.637Z,34.05
2018-05-25T11:40:35.782Z,33.68
2018-05-25T11:43:03.333Z,33.20
2018-05-25T11:45:30.807Z,33.37
2018-05-25T11:47:58.281Z,33.63
2018-05-25T11:50:26.378Z,33.22
2018-05-25T11:52:53.833Z,33.51
2018-05-25T11:55:21.390Z,33.53
2018-05-25T11:57:49.027Z,33.18
2018-05-25T12:00:16.641Z,32.87
2018-05-25T12:02:44.267Z,33.12
2018-05-25T12:05:12.056Z,33.10
2018-05-25T12:07:40.069Z,32.70
2018-05-25T12:10:07.700Z,33.38
2018-05-25T12:12:35.287Z,33.02
2018-05-25T12:15:02.868Z,32.34
2018-05-25T12:17:30.333Z,32.87
2018-05-25T12:19:57.807Z,33.25
2018-05-25T12:22:25.324Z,33.24
2018-05-25T12:24:52.967Z,33.30
2018-05-25T12:27:21.339Z,33.37
2018-05-25T12:29:48.827Z,33.51
2018-05-25T12:32:16.317Z,33.24
2018-05-25T12:34:44.062Z,33.30
2018-05-25T12:37:11.653Z,33.25
2018-05-25T12:39:39.313Z,33.47
2018-05-25T12:42:07.012Z,33.42
2018-05-25T12:44:46.367Z,33.36
2018-05-25T12:47:13.978Z,33.18
2018-05-25T12:49:41.442Z,32.85
2018-05-25T12:52:09.481Z,32.65
2018-05-25T12:54:37.004Z,32.71
2018-05-25T12:57:04.486Z,33.01
2018-05-25T12:59:32.598Z,33.18
2018-05-25T13:02:00.132Z,32.34
2018-05-25T13:04:27.781Z,32.56
2018-05-25T13:06:55.337Z,32.76
2018-05-25T13:09:22.859Z,32.70
2018-05-25T13:11:50.520Z,32.10
2018-05-25T13:14:18.261Z,32.02
2018-05-25T13:16:46.061Z,32.47
2018-05-25T13:19:14.578Z,32.52
2018-05-25T13:21:42.334Z,31.89
2018-05-25T13:24:09.997Z,32.30
2018-05-25T13:26:37.612Z,32.24
2018-05-25T13:29:05.088Z,32.56
2018-05-25T13:31:32.737Z,32.68
2018-05-25T13:34:00.206Z,32.12
2018-05-25T13:36:27.853Z,31.50
2018-05-25T13:38:55.554Z,31.43
2018-05-25T13:41:23.065Z,31.72
2018-05-25T13:43:50.525Z,31.75
2018-05-25T13:46:18.189Z,31.34
2018-05-25T13:48:45.756Z,30.62
2018-05-25T13:51:13.438Z,30.50
2018-05-25T13:53:40.979Z,30.97
2018-05-25T13:56:08.578Z,31.20
2018-05-25T13:58:36.216Z,31.59
2018-05-25T14:01:03.805Z,31.66
2018-05-25T14:03:31.386Z,31.60
2018-05-25T14:05:59.090Z,31.30
2018-05-25T14:08:26.623Z,31.12
2018-05-25T14:10:54.284Z,30.66
2018-05-25T14:13:22.019Z,30.90
2018-05-25T14:15:49.493Z,30.66
2018-05-25T14:18:17.082Z,30.53
2018-05-25T14:20:44.609Z,30.57
2018-05-25T14:23:12.198Z,30.27
2018-05-25T14:25:39.722Z,30.46
2018-05-25T14:28:07.303Z,30.05
2018-05-25T14:30:35.008Z,30.19
2018-05-25T14:33:02.513Z,30.33
2018-05-25T14:35:30.103Z,29.96
2018-05-25T14:37:57.649Z,29.51
2018-05-25T14:40:25.333Z,29.62
2018-05-25T14:42:52.965Z,29.71
2018-05-25T14:45:20.882Z,29.55
2018-05-25T14:47:48.462Z,29.41
2018-05-25T14:50:16.221Z,29.05
2018-05-25T14:52:43.704Z,29.30
2018-05-25T14:55:11.252Z,29.26
2018-05-25T14:57:38.823Z,29.25
2018-05-25T15:00:06.319Z,29.12
2018-05-25T15:02:33.775Z,28.91
2018-05-25T15:05:01.514Z,28.91
2018-05-25T15:07:29.790Z,28.97
2018-05-25T15:09:57.514Z,28.83
2018-05-25T15:12:25.324Z,28.89
2018-05-25T15:14:52.889Z,29.07
2018-05-25T15:17:20.558Z,29.16
2018-05-25T15:19:48.085Z,29.16
2018-05-25T15:22:15.666Z,29.13
2018-05-25T15:24:43.428Z,29.09
2018-05-25T15:27:11.048Z,28.96
2018-05-25T15:29:38.544Z,28.78
2018-05-25T15:32:06.177Z,28.75
2018-05-25T15:34:33.684Z,28.65
2018-05-25T15:37:01.164Z,28.60
2018-05-25T15:39:28.840Z,28.58
2018-05-25T15:41:56.442Z,28.40
2018-05-25T15:44:24.265Z,28.32
2018-05-25T15:46:51.739Z,28.08
2018-05-25T15:49:19.580Z,28.09
2018-05-25T15:51:47.050Z,28.02
2018-05-25T15:54:14.585Z,27.89
2018-05-25T15:56:42.339Z,27.70
2018-05-25T15:59:09.819Z,27.88
2018-05-25T16:01:37.524Z,27.96
2018-05-25T16:04:06.509Z,28.05
2018-05-25T16:06:34.154Z,28.07
2018-05-25T16:09:01.614Z,27.91
2018-05-25T16:11:29.259Z,27.82
2018-05-25T16:13:57.619Z,27.88
2018-05-25T16:16:25.093Z,27.83
2018-05-25T16:18:52.734Z,27.63
2018-05-25T16:21:20.269Z,27.46
2018-05-25T16:23:48.111Z,27.39
2018-05-25T16:26:15.575Z,27.32
2018-05-25T16:28:43.098Z,27.29
2018-05-25T16:31:10.724Z,27.25
2018-05-25T16:33:39.080Z,27.17
2018-05-25T16:36:06.579Z,27.08
2018-05-25T16:38:34.238Z,26.97
2018-05-25T16:41:02.021Z,26.97
2018-05-25T16:43:29.509Z,27.00
2018-05-25T16:45:57.201Z,27.01
2018-05-25T16:48:24.758Z,27.01
2018-05-25T16:50:52.227Z,27.04
2018-05-25T16:53:19.765Z,27.01
2018-05-25T16:55:47.455Z,26.99
2018-05-25T16:58:14.990Z,27.10
2018-05-25T17:00:42.533Z,27.21
2018-05-25T17:03:10.269Z,27.13
2018-05-25T17:05:37.756Z,27.00
2018-05-25T17:08:05.429Z,26.77
2018-05-25T17:10:33.141Z,26.72
2018-05-25T17:13:00.883Z,26.62
2018-05-25T17:15:28.363Z,26.55
2018-05-25T17:17:55.960Z,26.51
2018-05-25T17:20:23.539Z,26.40
2018-05-25T17:22:51.512Z,26.40
2018-05-25T17:25:19.105Z,26.25
2018-05-25T17:27:46.752Z,26.25
2018-05-25T17:30:14.353Z,26.15
2018-05-25T17:32:41.813Z,26.06
2018-05-25T17:35:09.509Z,26.07
2018-05-25T17:37:37.302Z,26.08
2018-05-25T17:40:05.040Z,26.07
2018-05-25T17:42:32.599Z,25.92
2018-05-25T17:45:00.120Z,25.86
2018-05-25T17:47:27.863Z,25.61
2018-05-25T17:49:55.309Z,25.47
2018-05-25T17:52:22.760Z,25.29
2018-05-25T17:54:50.432Z,25.17
2018-05-25T17:57:18.015Z,25.03
2018-05-25T17:59:45.675Z,24.83
2018-05-25T18:02:13.390Z,24.76
2018-05-25T18:04:40.884Z,24.73
2018-05-25T18:07:08.640Z,24.69
2018-05-25T18:09:37.080Z,24.57
2018-05-25T18:12:04.636Z,24.49
2018-05-25T18:14:32.904Z,24.31
2018-05-25T18:17:00.390Z,24.10
2018-05-25T18:19:28.444Z,23.93
2018-05-25T18:21:55.923Z,23.74
2018-05-25T18:24:23.629Z,23.67
2018-05-25T18:26:51.225Z,23.54
2018-05-25T18:29:18.722Z,23.29
2018-05-25T18:31:46.249Z,23.18
2018-05-25T18:34:13.876Z,23.12
2018-05-25T18:36:41.508Z,23.03
2018-05-25T18:39:08.970Z,22.92
2018-05-25T18:41:36.700Z,22.71
2018-05-25T18:44:04.266Z,22.60
2018-05-25T18:46:31.805Z,22.49
2018-05-25T18:48:59.420Z,22.35
2018-05-25T18:51:27.252Z,22.10
2018-05-25T18:54:06.630Z,21.98
2018-05-25T18:56:34.465Z,21.85
2018-05-25T18:59:02.739Z,21.64
2018-05-25T19:01:31.063Z,21.58
2018-05-25T19:03:58.730Z,21.42
2018-05-25T19:06:26.240Z,21.39
2018-05-25T19:08:53.815Z,21.22
2018-05-25T19:11:21.490Z,21.14
2018-05-25T19:13:49.908Z,21.08
2018-05-25T19:16:17.602Z,20.84
2018-05-25T19:18:44.741Z,20.79
2018-05-25T19:21:12.279Z,20.76
2018-05-25T19:23:39.880Z,20.65
2018-05-25T19:26:06.895Z,20.50
2018-05-25T19:28:34.218Z,20.29
2018-05-25T19:31:01.376Z,20.17
2018-05-25T19:33:28.930Z,20.06
2018-05-25T19:35:56.081Z,19.94
2018-05-25T19:38:23.660Z,19.88
2018-05-25T19:40:51.174Z,19.83
2018-05-25T19:43:18.906Z,19.76
2018-05-25T19:45:46.445Z,19.68
2018-05-25T19:48:14.324Z,19.57
2018-05-25T19:50:41.937Z,19.48
2018-05-25T19:53:09.454Z,19.43
2018-05-25T19:55:37.376Z,19.38
2018-05-25T19:58:05.729Z,19.28
2018-05-25T20:00:33.327Z,19.19
2018-05-25T20:03:01.025Z,19.18
2018-05-25T20:05:28.520Z,19.17
2018-05-25T20:07:56.681Z,19.06
2018-05-25T20:10:24.312Z,18.85
2018-05-25T20:12:52.098Z,18.82
2018-05-25T20:15:19.711Z,18.76
2018-05-25T20:17:47.700Z,18.50
2018-05-25T20:20:15.196Z,18.48
2018-05-25T20:22:42.987Z,18.42
2018-05-25T20:25:10.548Z,18.26
2018-05-25T20:27:38.122Z,18.20
2018-05-25T20:30:05.825Z,18.16
2018-05-25T20:32:33.550Z,18.17
2018-05-25T20:35:01.380Z,18.17
2018-05-25T20:37:29.167Z,18.09
2018-05-25T20:39:56.941Z,17.73
2018-05-25T20:42:24.432Z,17.60
2018-05-25T20:44:52.356Z,17.59
2018-05-25T20:47:19.892Z,17.62
2018-05-25T20:49:47.520Z,17.64
2018-05-25T20:52:15.022Z,17.68
2018-05-25T20:54:42.525Z,17.63
2018-05-25T20:57:10.072Z,17.56
2018-05-25T20:59:37.079Z,17.44
2018-05-25T21:02:04.200Z,17.37
2018-05-25T21:04:31.855Z,17.27
2018-05-25T21:06:59.600Z,17.16
2018-05-25T21:09:27.200Z,17.13
2018-05-25T21:11:55.006Z,17.18
2018-05-25T21:14:22.566Z,17.19
2018-05-25T21:16:50.045Z,17.17
2018-05-25T21:19:18.157Z,17.06
2018-05-25T21:21:46.160Z,17.00
2018-05-25T21:24:13.798Z,16.98
2018-05-25T21:26:41.343Z,17.00
2018-05-25T21:29:09.019Z,16.95
2018-05-25T21:31:36.705Z,16.88
2018-05-25T21:34:04.397Z,16.85
2018-05-25T21:36:32.119Z,16.85
2018-05-25T21:39:00.141Z,16.88
2018-05-25T21:41:27.965Z,16.68
2018-05-25T21:43:55.598Z,16.51
2018-05-25T21:46:23.149Z,16.54
2018-05-25T21:48:50.614Z,16.54
2018-05-25T21:51:18.077Z,16.44
2018-05-25T21:53:45.688Z,16.38
2018-05-25T21:56:13.245Z,16.33
2018-05-25T21:58:40.881Z,16.31
2018-05-25T22:01:08.813Z,16.27
2018-05-25T22:03:36.631Z,16.23
2018-05-25T22:06:04.947Z,16.19
2018-05-25T22:08:32.543Z,16.10
2018-05-25T22:11:00.045Z,16.10
2018-05-25T22:13:27.681Z,16.02
2018-05-25T22:15:55.299Z,15.90
2018-05-25T22:18:23.436Z,15.90
2018-05-25T22:20:50.917Z,15.78
2018-05-25T22:23:18.673Z,15.78
2018-05-25T22:25:46.939Z,15.74
2018-05-25T22:28:14.448Z,15.72
2018-05-25T22:30:42.079Z,15.67
2018-05-25T22:33:09.723Z,15.58
2018-05-25T22:35:38.129Z,15.59
2018-05-25T22:38:06.601Z,15.59
2018-05-25T22:40:34.773Z,15.67
2018-05-25T22:43:14.541Z,15.70
2018-05-25T22:45:54.156Z,15.62
2018-05-25T22:48:33.576Z,15.49
2018-05-25T22:51:13.065Z,15.47
2018-05-25T22:53:45.440Z,15.43
2018-05-25T22:56:12.935Z,15.45
2018-05-25T22:58:40.455Z,15.32
2018-05-25T23:01:08.086Z,15.25
2018-05-25T23:03:35.745Z,15.22
2018-05-25T23:06:03.369Z,15.22
2018-05-25T23:08:31.318Z,15.27
2018-05-25T23:10:59.456Z,15.17
2018-05-25T23:13:26.897Z,15.08
2018-05-25T23:15:54.897Z,15.04
2018-05-25T23:18:22.364Z,14.98
2018-05-25T23:20:50.018Z,14.91
2018-05-25T23:23:17.627Z,14.90
2018-05-25T23:25:45.222Z,14.88
2018-05-25T23:28:12.699Z,14.83
2018-05-25T23:30:40.570Z,14.81
2018-05-25T23:33:08.037Z,14.82
2018-05-25T23:35:35.506Z,14.78
2018-05-25T23:38:03.318Z,14.63
2018-05-25T23:40:31.738Z,14.62
2018-05-25T23:42:59.426Z,14.58
2018-05-25T23:45:27.015Z,14.52
2018-05-25T23:47:54.593Z,14.49
2018-05-25T23:50:22.126Z,14.49
2018-05-25T23:52:49.788Z,14.44
2018-05-25T23:55:17.259Z,14.35
2018-05-25T23:57:44.906Z,14.30
